sensor_id;sensor_type;location;lat;lon;timestamp;pressure;altitude;pressure_sealevel;temperature;humidity
6500;BME280;3283;52.330;9.772;2023-07-09T07:29:39;101190.06;;;25.72;74.51
6500;BME280;3283;52.330;9.772;2023-07-09T07:32:05;101192.06;;;25.96;73.26
6500;BME280;3283;52.330;9.772;2023-07-09T07:34:30;101193.28;;;26.17;74.72
6500;BME280;3283;52.330;9.772;2023-07-09T07:36:55;101191.59;;;26.29;73.31
6500;BME280;3283;52.330;9.772;2023-07-09T07:39:21;101200.19;;;26.34;72.60
6500;BME280;3283;52.330;9.772;2023-07-09T07:41:46;101191.59;;;26.42;73.00
6500;BME280;3283;52.330;9.772;2023-07-09T07:44:11;101192.03;;;26.61;71.22
6500;BME280;3283;52.330;9.772;2023-07-09T07:46:37;101187.72;;;26.71;70.64
6500;BME280;3283;52.330;9.772;2023-07-09T07:49:02;101192.66;;;26.90;69.52
6500;BME280;3283;52.330;9.772;2023-07-09T07:51:27;101197.28;;;27.01;69.52
6500;BME280;3283;52.330;9.772;2023-07-09T07:53:53;101190.38;;;27.09;67.58
6500;BME280;3283;52.330;9.772;2023-07-09T07:56:18;101190.91;;;27.15;66.76
6500;BME280;3283;52.330;9.772;2023-07-09T07:58:44;101198.50;;;27.33;66.52
6500;BME280;3283;52.330;9.772;2023-07-09T08:01:09;101188.50;;;27.47;65.63
6500;BME280;3283;52.330;9.772;2023-07-09T08:03:35;101193.59;;;27.51;65.78
6500;BME280;3283;52.330;9.772;2023-07-09T08:06:00;101190.81;;;27.64;64.79
6500;BME280;3283;52.330;9.772;2023-07-09T08:08:26;101194.38;;;27.77;64.10
6500;BME280;3283;52.330;9.772;2023-07-09T08:10:51;101197.34;;;27.85;62.47
6500;BME280;3283;52.330;9.772;2023-07-09T08:13:17;101188.91;;;28.01;61.99
6500;BME280;3283;52.330;9.772;2023-07-09T08:15:43;101188.94;;;28.12;61.79
6500;BME280;3283;52.330;9.772;2023-07-09T08:18:10;101187.63;;;28.29;62.58
6500;BME280;3283;52.330;9.772;2023-07-09T08:20:35;101193.09;;;28.40;63.06
6500;BME280;3283;52.330;9.772;2023-07-09T08:23:00;101189.28;;;28.54;63.27
6500;BME280;3283;52.330;9.772;2023-07-09T08:25:26;101181.41;;;28.51;64.00
6500;BME280;3283;52.330;9.772;2023-07-09T08:27:51;101178.69;;;28.51;63.69
6500;BME280;3283;52.330;9.772;2023-07-09T08:30:16;101177.97;;;28.60;62.88
6500;BME280;3283;52.330;9.772;2023-07-09T08:32:42;101186.09;;;28.60;62.08
6500;BME280;3283;52.330;9.772;2023-07-09T08:35:07;101183.28;;;28.84;61.15
6500;BME280;3283;52.330;9.772;2023-07-09T08:37:35;101170.31;;;28.88;59.79
6500;BME280;3283;52.330;9.772;2023-07-09T08:40:00;101167.88;;;28.62;61.38
6500;BME280;3283;52.330;9.772;2023-07-09T08:42:31;101177.22;;;29.03;60.60
6500;BME280;3283;52.330;9.772;2023-07-09T08:45:07;101183.59;;;29.36;59.85
6500;BME280;3283;52.330;9.772;2023-07-09T08:48:03;101181.25;;;29.53;58.11
6500;BME280;3283;52.330;9.772;2023-07-09T08:50:42;101181.09;;;29.44;58.63
6500;BME280;3283;52.330;9.772;2023-07-09T08:53:16;101181.47;;;29.50;60.49
6500;BME280;3283;52.330;9.772;2023-07-09T08:55:45;101175.81;;;29.53;60.40
6500;BME280;3283;52.330;9.772;2023-07-09T08:58:21;101164.47;;;29.37;60.61
6500;BME280;3283;52.330;9.772;2023-07-09T09:01:01;101172.16;;;29.32;60.53
6500;BME280;3283;52.330;9.772;2023-07-09T09:03:29;101164.75;;;29.66;62.14
6500;BME280;3283;52.330;9.772;2023-07-09T09:05:56;101170.09;;;29.68;61.88
6500;BME280;3283;52.330;9.772;2023-07-09T09:08:37;101159.69;;;29.73;60.43
6500;BME280;3283;52.330;9.772;2023-07-09T09:13:36;101167.59;;;29.97;59.07
6500;BME280;3283;52.330;9.772;2023-07-09T09:16:04;101162.94;;;30.08;58.98
6500;BME280;3283;52.330;9.772;2023-07-09T09:18:40;101174.78;;;30.19;61.75
6500;BME280;3283;52.330;9.772;2023-07-09T09:21:15;101166.53;;;30.09;59.54
6500;BME280;3283;52.330;9.772;2023-07-09T09:23:48;101170.03;;;30.00;59.58
6500;BME280;3283;52.330;9.772;2023-07-09T09:26:31;101169.88;;;30.13;60.54
6500;BME280;3283;52.330;9.772;2023-07-09T09:28:57;101170.00;;;30.32;59.90
6500;BME280;3283;52.330;9.772;2023-07-09T09:31:25;101167.66;;;30.06;60.13
6500;BME280;3283;52.330;9.772;2023-07-09T09:33:52;101169.38;;;30.07;60.46
6500;BME280;3283;52.330;9.772;2023-07-09T09:36:24;101166.34;;;30.22;61.20
6500;BME280;3283;52.330;9.772;2023-07-09T09:38:50;101166.78;;;30.48;59.91
6500;BME280;3283;52.330;9.772;2023-07-09T09:41:19;101168.63;;;30.17;60.43
6500;BME280;3283;52.330;9.772;2023-07-09T09:43:46;101171.97;;;30.30;61.02
6500;BME280;3283;52.330;9.772;2023-07-09T09:46:20;101168.78;;;30.67;60.98
6500;BME280;3283;52.330;9.772;2023-07-09T09:48:48;101178.44;;;30.90;61.02
6500;BME280;3283;52.330;9.772;2023-07-09T09:51:15;101171.94;;;30.72;60.26
6500;BME280;3283;52.330;9.772;2023-07-09T09:53:46;101174.72;;;30.60;60.22
6500;BME280;3283;52.330;9.772;2023-07-09T09:56:19;101172.88;;;30.92;60.28
6500;BME280;3283;52.330;9.772;2023-07-09T09:58:45;101177.91;;;30.96;59.33
6500;BME280;3283;52.330;9.772;2023-07-09T10:01:15;101169.00;;;31.25;59.59
6500;BME280;3283;52.330;9.772;2023-07-09T10:03:41;101171.69;;;30.75;60.28
6500;BME280;3283;52.330;9.772;2023-07-09T10:06:23;101182.13;;;30.79;59.42
6500;BME280;3283;52.330;9.772;2023-07-09T10:20:35;101172.03;;;31.99;54.16
6500;BME280;3283;52.330;9.772;2023-07-09T10:23:13;101174.06;;;31.97;53.17
6500;BME280;3283;52.330;9.772;2023-07-09T11:37:11;101132.66;;;33.15;51.50
6500;BME280;3283;52.330;9.772;2023-07-09T11:42:03;101126.13;;;33.61;50.43
6500;BME280;3283;52.330;9.772;2023-07-09T11:44:49;101125.75;;;33.38;51.15
6500;BME280;3283;52.330;9.772;2023-07-09T11:47:22;101129.13;;;33.50;51.32
6500;BME280;3283;52.330;9.772;2023-07-09T11:49:55;101130.13;;;33.67;52.29
6500;BME280;3283;52.330;9.772;2023-07-09T11:52:30;101117.94;;;33.61;52.63
6500;BME280;3283;52.330;9.772;2023-07-09T11:55:01;101122.78;;;33.67;51.02
6500;BME280;3283;52.330;9.772;2023-07-09T11:57:28;101114.53;;;33.59;51.22
6500;BME280;3283;52.330;9.772;2023-07-09T11:59:59;101116.47;;;33.67;51.19
6500;BME280;3283;52.330;9.772;2023-07-09T12:02:31;101114.88;;;33.82;51.22
